createdAt,value
2022-10-01T00:00:10.367Z,9.17
2022-10-01T00:01:10.376Z,9.16
2022-10-01T00:02:10.324Z,9.16
2022-10-01T00:03:10.345Z,9.13
2022-10-01T00:04:10.308Z,9.12
2022-10-01T00:05:10.297Z,9.08
2022-10-01T00:06:10.283Z,9.06
2022-10-01T00:07:10.269Z,9.06
2022-10-01T00:08:10.279Z,9.04
2022-10-01T00:09:10.235Z,9.03
2022-10-01T00:10:10.253Z,9.06
2022-10-01T00:11:10.224Z,9.04
2022-10-01T00:12:10.208Z,9.10
2022-10-01T00:13:10.172Z,9.15
2022-10-01T00:14:10.165Z,9.15
2022-10-01T00:15:13.387Z,9.13
2022-10-01T00:16:10.208Z,9.12
2022-10-01T00:17:10.141Z,9.12
2022-10-01T00:18:10.150Z,9.10
2022-10-01T00:19:10.109Z,9.10
2022-10-01T00:20:14.166Z,9.06
2022-10-01T00:21:10.069Z,9.08
2022-10-01T00:22:10.046Z,9.04
2022-10-01T00:23:10.040Z,9.03
2022-10-01T00:24:10.036Z,9.03
2022-10-01T00:25:10.023Z,9.03
2022-10-01T00:26:09.988Z,9.04
2022-10-01T00:27:09.978Z,9.04
2022-10-01T00:28:10.046Z,9.04
2022-10-01T00:29:09.968Z,9.04
2022-10-01T00:30:09.928Z,9.03
2022-10-01T00:31:10.022Z,9.06
2022-10-01T00:32:10.008Z,9.06
2022-10-01T00:33:09.901Z,9.04
2022-10-01T00:34:09.916Z,9.06
2022-10-01T00:35:09.926Z,9.04
2022-10-01T00:36:09.897Z,9.08
2022-10-01T00:37:09.898Z,9.10
2022-10-01T00:38:09.845Z,9.10
2022-10-01T00:39:09.934Z,9.13
2022-10-01T00:40:09.828Z,9.12
2022-10-01T00:41:09.806Z,9.15
2022-10-01T00:42:09.780Z,9.15
2022-10-01T00:43:09.776Z,9.15
2022-10-01T00:44:09.757Z,9.15
2022-10-01T00:45:09.809Z,9.12
2022-10-01T00:46:09.791Z,9.08
2022-10-01T00:47:09.751Z,9.06
2022-10-01T00:48:09.724Z,9.04
2022-10-01T00:49:09.699Z,9.03
2022-10-01T00:50:09.695Z,9.03
2022-10-01T00:51:09.666Z,9.04
2022-10-01T00:52:09.674Z,9.03
2022-10-01T00:53:09.651Z,9.01
2022-10-01T00:54:09.625Z,8.98
2022-10-01T00:55:09.617Z,8.96
2022-10-01T00:56:09.618Z,8.91
2022-10-01T00:57:09.605Z,8.94
2022-10-01T00:58:09.599Z,8.97
2022-10-01T00:59:09.569Z,8.96
2022-10-01T01:00:09.540Z,8.97
2022-10-01T01:01:09.580Z,8.96
2022-10-01T01:02:09.575Z,8.94
2022-10-01T01:03:09.503Z,8.96
2022-10-01T01:04:09.482Z,8.97
2022-10-01T01:05:09.504Z,8.97
2022-10-01T01:06:09.470Z,8.94
2022-10-01T01:07:09.472Z,8.97
2022-10-01T01:08:09.460Z,8.97
2022-10-01T01:09:09.428Z,8.97
2022-10-01T01:10:09.425Z,9.01
2022-10-01T01:11:09.432Z,9.01
2022-10-01T01:12:09.578Z,9.03
2022-10-01T01:13:09.379Z,9.01
2022-10-01T01:14:09.354Z,9.00
2022-10-01T01:15:09.355Z,8.98
2022-10-01T01:16:09.389Z,9.00
2022-10-01T01:17:09.340Z,8.98
2022-10-01T01:18:09.340Z,8.97
2022-10-01T01:19:09.284Z,8.97
2022-10-01T01:20:09.283Z,8.97
2022-10-01T01:21:09.264Z,9.00
2022-10-01T01:22:09.248Z,8.98
2022-10-01T01:23:09.224Z,8.97
2022-10-01T01:24:09.251Z,8.96
2022-10-01T01:25:09.219Z,8.94
2022-10-01T01:26:09.199Z,8.93
2022-10-01T01:27:09.188Z,8.93
2022-10-01T01:28:09.203Z,8.91
2022-10-01T01:29:09.139Z,8.89
2022-10-01T01:30:09.138Z,8.89
2022-10-01T01:31:09.180Z,8.91
2022-10-01T01:32:13.969Z,8.91
2022-10-01T01:33:10.107Z,8.91
2022-10-01T01:34:09.093Z,8.91
2022-10-01T01:35:09.080Z,8.93
2022-10-01T01:36:09.056Z,8.88
2022-10-01T01:37:09.079Z,8.88
2022-10-01T01:38:09.064Z,8.88
2022-10-01T01:39:09.057Z,8.89
2022-10-01T01:40:09.025Z,8.89
2022-10-01T01:41:09.003Z,8.94
2022-10-01T01:42:09.063Z,8.91
2022-10-01T01:43:08.993Z,8.89
2022-10-01T01:44:08.986Z,8.91
2022-10-01T01:45:08.976Z,8.91
2022-10-01T01:46:09.048Z,8.93
2022-10-01T01:47:08.924Z,8.97
2022-10-01T01:48:08.902Z,8.96
2022-10-01T01:49:08.868Z,8.97
2022-10-01T01:50:08.892Z,8.98
2022-10-01T01:51:08.847Z,9.00
2022-10-01T01:52:08.854Z,9.00
2022-10-01T01:53:08.835Z,9.00
2022-10-01T01:54:08.924Z,8.97
2022-10-01T01:55:08.788Z,8.96
2022-10-01T01:56:08.769Z,8.93
2022-10-01T01:57:08.774Z,8.93
2022-10-01T01:58:08.967Z,8.94
2022-10-01T01:59:08.775Z,8.93
2022-10-01T02:00:08.774Z,8.96
2022-10-01T02:01:08.752Z,8.94
2022-10-01T02:02:08.880Z,8.94
2022-10-01T02:03:08.712Z,8.93
2022-10-01T02:04:08.687Z,8.91
2022-10-01T02:05:08.667Z,8.89
2022-10-01T02:06:08.667Z,8.89
2022-10-01T02:07:08.633Z,8.89
2022-10-01T02:08:08.663Z,8.88
2022-10-01T02:09:08.673Z,8.88
2022-10-01T02:10:08.615Z,8.89
2022-10-01T02:11:08.591Z,8.88
2022-10-01T02:12:08.558Z,8.85
2022-10-01T02:13:08.569Z,8.82
2022-10-01T02:14:08.591Z,8.80
2022-10-01T02:15:08.572Z,8.82
2022-10-01T02:16:08.698Z,8.83
2022-10-01T02:17:08.506Z,8.86
2022-10-01T02:18:08.601Z,8.86
2022-10-01T02:19:08.475Z,8.89
2022-10-01T02:20:08.460Z,8.86
2022-10-01T02:21:08.446Z,8.86
2022-10-01T02:22:08.454Z,8.85
2022-10-01T02:23:08.451Z,8.83
2022-10-01T02:24:08.404Z,8.80
2022-10-01T02:25:08.410Z,8.80
2022-10-01T02:26:08.382Z,8.80
2022-10-01T02:27:08.365Z,8.80
2022-10-01T02:28:08.461Z,8.80
2022-10-01T02:29:08.386Z,8.83
2022-10-01T02:30:08.355Z,8.83
2022-10-01T02:31:08.339Z,8.82
2022-10-01T02:32:08.320Z,8.79
2022-10-01T02:33:08.316Z,8.78
2022-10-01T02:34:12.369Z,8.76
2022-10-01T02:35:08.356Z,8.75
2022-10-01T02:36:08.273Z,8.76
2022-10-01T02:37:08.237Z,8.73
2022-10-01T02:38:08.243Z,8.70
2022-10-01T02:39:08.245Z,8.71
2022-10-01T02:40:08.263Z,8.73
2022-10-01T02:41:08.184Z,8.71
2022-10-01T02:42:08.182Z,8.68
2022-10-01T02:43:08.175Z,8.67
2022-10-01T02:44:08.183Z,8.68
2022-10-01T02:45:08.173Z,8.65
2022-10-01T02:46:08.226Z,8.64
2022-10-01T02:47:08.144Z,8.63
2022-10-01T02:48:08.119Z,8.61
2022-10-01T02:49:08.078Z,8.60
2022-10-01T02:50:08.066Z,8.60
2022-10-01T02:51:08.080Z,8.60
2022-10-01T02:52:08.061Z,8.60
2022-10-01T02:53:08.023Z,8.60
2022-10-01T02:54:08.055Z,8.61
2022-10-01T02:55:08.000Z,8.60
2022-10-01T02:56:08.018Z,8.58
2022-10-01T02:57:08.010Z,8.55
2022-10-01T02:58:07.988Z,8.54
2022-10-01T02:59:08.005Z,8.52
2022-10-01T03:00:07.987Z,8.54
2022-10-01T03:01:07.978Z,8.52
2022-10-01T03:02:08.109Z,8.52
2022-10-01T03:03:07.891Z,8.50
2022-10-01T03:04:07.968Z,8.50
2022-10-01T03:05:07.976Z,8.50
2022-10-01T03:06:07.882Z,8.54
2022-10-01T03:07:07.839Z,8.52
2022-10-01T03:08:07.837Z,8.52
2022-10-01T03:09:07.846Z,8.50
2022-10-01T03:10:07.798Z,8.52
2022-10-01T03:11:07.903Z,8.52
2022-10-01T03:12:07.785Z,8.46
2022-10-01T03:13:07.768Z,8.47
2022-10-01T03:14:07.786Z,8.49
2022-10-01T03:15:07.764Z,8.47
2022-10-01T03:16:07.779Z,8.47
2022-10-01T03:17:07.759Z,8.49
2022-10-01T03:18:07.699Z,8.47
2022-10-01T03:19:07.725Z,8.50
2022-10-01T03:20:07.661Z,8.49
2022-10-01T03:21:07.647Z,8.52
2022-10-01T03:22:07.837Z,8.54
2022-10-01T03:23:07.636Z,8.54
2022-10-01T03:24:07.646Z,8.52
2022-10-01T03:25:07.608Z,8.52
2022-10-01T03:26:07.612Z,8.52
2022-10-01T03:27:07.583Z,8.54
2022-10-01T03:28:07.654Z,8.54
2022-10-01T03:29:07.588Z,8.54
2022-10-01T03:30:07.553Z,8.54
2022-10-01T03:31:07.561Z,8.54
2022-10-01T03:32:07.519Z,8.54
2022-10-01T03:33:07.512Z,8.54
2022-10-01T03:34:07.551Z,8.57
2022-10-01T03:35:07.482Z,8.57
2022-10-01T03:36:08.127Z,8.55
2022-10-01T03:37:07.454Z,8.54
2022-10-01T03:38:07.460Z,8.54
2022-10-01T03:39:07.449Z,8.55
2022-10-01T03:40:07.457Z,8.55
2022-10-01T03:41:07.442Z,8.55
2022-10-01T03:42:07.408Z,8.55
2022-10-01T03:43:07.382Z,8.57
2022-10-01T03:44:07.388Z,8.57
2022-10-01T03:45:07.347Z,8.55
2022-10-01T03:46:07.402Z,8.55
2022-10-01T03:47:07.324Z,8.57
2022-10-01T03:48:07.332Z,8.58
2022-10-01T03:49:07.299Z,8.63
2022-10-01T03:50:07.295Z,8.64
2022-10-01T03:51:07.270Z,8.65
2022-10-01T03:52:07.271Z,8.65
2022-10-01T03:53:07.278Z,8.64
2022-10-01T03:54:07.317Z,8.64
2022-10-01T03:55:07.263Z,8.67
2022-10-01T03:56:07.219Z,8.68
2022-10-01T03:57:07.221Z,8.70
2022-10-01T03:58:07.190Z,8.68
2022-10-01T03:59:07.216Z,8.67
2022-10-01T04:00:07.202Z,8.70
2022-10-01T04:01:07.134Z,8.68
2022-10-01T04:02:07.337Z,8.70
2022-10-01T04:03:07.227Z,8.68
2022-10-01T04:04:07.129Z,8.65
2022-10-01T04:05:07.075Z,8.64
2022-10-01T04:06:07.463Z,8.63
2022-10-01T04:07:07.058Z,8.63
2022-10-01T04:08:07.055Z,8.60
2022-10-01T04:09:07.071Z,8.60
2022-10-01T04:10:07.072Z,8.61
2022-10-01T04:11:07.010Z,8.60
2022-10-01T04:12:07.013Z,8.58
2022-10-01T04:13:06.986Z,8.57
2022-10-01T04:14:06.976Z,8.54
2022-10-01T04:15:06.987Z,8.52
2022-10-01T04:16:06.994Z,8.50
2022-10-01T04:17:06.920Z,8.52
2022-10-01T04:18:06.946Z,8.54
2022-10-01T04:19:06.893Z,8.52
2022-10-01T04:20:06.897Z,8.50
2022-10-01T04:21:06.883Z,8.50
2022-10-01T04:22:06.897Z,8.47
2022-10-01T04:23:06.845Z,8.47
2022-10-01T04:24:06.873Z,8.50
2022-10-01T04:25:06.886Z,8.49
2022-10-01T04:26:06.877Z,8.47
2022-10-01T04:27:06.821Z,8.49
2022-10-01T04:28:06.827Z,8.52
2022-10-01T04:29:06.801Z,8.55
2022-10-01T04:30:06.794Z,8.52
2022-10-01T04:31:06.789Z,8.52
2022-10-01T04:32:06.770Z,8.52
2022-10-01T04:33:06.729Z,8.49
2022-10-01T04:34:06.729Z,8.46
2022-10-01T04:35:06.713Z,8.47
2022-10-01T04:36:06.714Z,8.46
2022-10-01T04:37:07.649Z,8.46
2022-10-01T04:38:06.666Z,8.47
2022-10-01T04:39:06.645Z,8.49
2022-10-01T04:40:06.673Z,8.46
2022-10-01T04:41:06.607Z,8.45
2022-10-01T04:42:06.593Z,8.45
2022-10-01T04:43:06.595Z,8.47
2022-10-01T04:44:06.589Z,8.43
2022-10-01T04:45:06.609Z,8.43
2022-10-01T04:46:06.538Z,8.43
2022-10-01T04:47:06.596Z,8.45
2022-10-01T04:48:06.539Z,8.43
2022-10-01T04:49:06.526Z,8.42
2022-10-01T04:50:06.557Z,8.40
2022-10-01T04:51:06.476Z,8.43
2022-10-01T04:52:06.505Z,8.43
2022-10-01T04:53:06.456Z,8.45
2022-10-01T04:54:06.460Z,8.46
2022-10-01T04:55:06.420Z,8.45
2022-10-01T04:56:06.435Z,8.45
2022-10-01T04:57:06.403Z,8.46
2022-10-01T04:58:06.406Z,8.47
2022-10-01T04:59:06.383Z,8.50
2022-10-01T05:00:06.429Z,8.52
2022-10-01T05:01:06.402Z,8.52
2022-10-01T05:02:06.446Z,8.57
2022-10-01T05:03:06.319Z,8.58
2022-10-01T05:04:06.327Z,8.58
2022-10-01T05:05:06.288Z,8.58
2022-10-01T05:06:06.287Z,8.60
2022-10-01T05:07:06.257Z,8.57
2022-10-01T05:08:06.376Z,8.57
2022-10-01T05:09:06.234Z,8.57
2022-10-01T05:10:06.254Z,8.55
2022-10-01T05:11:06.196Z,8.55
2022-10-01T05:12:06.201Z,8.57
2022-10-01T05:13:06.177Z,8.54
2022-10-01T05:14:06.194Z,8.54
2022-10-01T05:15:13.185Z,8.52
2022-10-01T05:16:11.028Z,8.52
2022-10-01T05:17:07.841Z,8.54
2022-10-01T05:18:06.126Z,8.52
2022-10-01T05:19:06.107Z,8.54
2022-10-01T05:20:06.110Z,8.54
2022-10-01T05:21:06.067Z,8.55
2022-10-01T05:22:06.054Z,8.54
2022-10-01T05:23:06.036Z,8.54
2022-10-01T05:24:06.056Z,8.57
2022-10-01T05:25:06.024Z,8.60
2022-10-01T05:26:06.015Z,8.60
2022-10-01T05:27:05.983Z,8.61
2022-10-01T05:28:06.121Z,8.61
2022-10-01T05:29:05.985Z,8.61
2022-10-01T05:30:05.957Z,8.64
2022-10-01T05:31:05.975Z,8.63
2022-10-01T05:32:06.086Z,8.61
2022-10-01T05:33:05.907Z,8.61
2022-10-01T05:34:05.904Z,8.61
2022-10-01T05:35:06.175Z,8.63
2022-10-01T05:36:05.863Z,8.61
2022-10-01T05:37:05.856Z,8.61
2022-10-01T05:38:05.843Z,8.63
2022-10-01T05:39:05.844Z,8.63
2022-10-01T05:40:05.824Z,8.65
2022-10-01T05:41:05.793Z,8.68
2022-10-01T05:42:06.614Z,8.71
2022-10-01T05:43:05.771Z,8.68
2022-10-01T05:44:05.764Z,8.75
2022-10-01T05:45:05.748Z,8.76
2022-10-01T05:46:05.789Z,8.76
2022-10-01T05:47:05.733Z,8.82
2022-10-01T05:48:05.719Z,8.85
2022-10-01T05:49:05.701Z,8.88
2022-10-01T05:50:05.679Z,8.88
2022-10-01T05:51:05.687Z,8.94
2022-10-01T05:52:05.659Z,8.94
2022-10-01T05:53:05.635Z,8.96
2022-10-01T05:54:05.650Z,8.96
2022-10-01T05:55:05.617Z,9.00
2022-10-01T05:56:05.622Z,9.01
2022-10-01T05:57:05.585Z,9.04
2022-10-01T05:58:05.581Z,9.06
2022-10-01T05:59:05.559Z,9.10
2022-10-01T06:00:05.610Z,9.10
2022-10-01T06:01:05.533Z,9.13
2022-10-01T06:02:05.691Z,9.17
2022-10-01T06:03:05.581Z,9.19
2022-10-01T06:04:05.547Z,9.23
2022-10-01T06:05:05.486Z,9.26
2022-10-01T06:06:05.479Z,9.30
2022-10-01T06:07:05.453Z,9.31
2022-10-01T06:08:05.435Z,9.31
2022-10-01T06:09:05.433Z,9.31
2022-10-01T06:10:05.425Z,9.34
2022-10-01T06:11:05.396Z,9.37
2022-10-01T06:12:05.413Z,9.40
2022-10-01T06:13:05.375Z,9.42
2022-10-01T06:14:05.362Z,9.45
2022-10-01T06:15:05.358Z,9.48
2022-10-01T06:16:05.384Z,9.49
2022-10-01T06:17:05.326Z,9.48
2022-10-01T06:18:05.321Z,9.50
2022-10-01T06:19:05.294Z,9.53
2022-10-01T06:20:05.292Z,9.53
2022-10-01T06:21:05.274Z,9.55
2022-10-01T06:22:05.273Z,9.56
2022-10-01T06:23:05.252Z,9.60
2022-10-01T06:24:05.246Z,9.59
2022-10-01T06:25:05.233Z,9.60
2022-10-01T06:26:05.210Z,9.60
2022-10-01T06:27:05.191Z,9.59
2022-10-01T06:28:05.277Z,9.60
2022-10-01T06:29:05.160Z,9.70
2022-10-01T06:30:05.185Z,9.81
2022-10-01T06:31:05.191Z,9.86
2022-10-01T06:32:05.258Z,9.93
2022-10-01T06:33:05.108Z,10.14
2022-10-01T06:34:05.100Z,10.18
2022-10-01T06:35:05.089Z,10.18
2022-10-01T06:36:05.090Z,10.32
2022-10-01T06:37:05.079Z,10.31
2022-10-01T06:38:05.057Z,10.28
2022-10-01T06:39:05.042Z,10.35
2022-10-01T06:40:05.018Z,10.42
2022-10-01T06:41:05.019Z,10.42
2022-10-01T06:42:04.998Z,10.42
2022-10-01T06:43:04.988Z,10.42
2022-10-01T06:44:04.978Z,10.36
2022-10-01T06:45:04.986Z,10.49
2022-10-01T06:46:05.009Z,10.44
2022-10-01T06:47:04.936Z,10.42
2022-10-01T06:48:04.910Z,10.38
2022-10-01T06:49:04.956Z,10.43
2022-10-01T06:50:04.888Z,10.44
2022-10-01T06:51:04.885Z,10.43
2022-10-01T06:52:04.865Z,10.39
2022-10-01T06:53:04.863Z,10.32
2022-10-01T06:54:04.857Z,10.28
2022-10-01T06:55:04.834Z,10.25
2022-10-01T06:56:04.846Z,10.20
2022-10-01T06:57:04.815Z,10.17
2022-10-01T06:58:04.794Z,10.24
2022-10-01T06:59:04.775Z,10.26
2022-10-01T07:00:04.797Z,10.28
2022-10-01T07:01:04.780Z,10.24
2022-10-01T07:02:04.748Z,10.20
2022-10-01T07:03:04.731Z,10.18
2022-10-01T07:04:04.715Z,10.16
2022-10-01T07:05:04.703Z,10.16
2022-10-01T07:06:04.684Z,10.16
2022-10-01T07:07:04.674Z,10.16
2022-10-01T07:08:04.669Z,10.16
2022-10-01T07:09:04.650Z,10.18
2022-10-01T07:10:04.643Z,10.18
2022-10-01T07:11:04.624Z,10.18
2022-10-01T07:12:04.612Z,10.25
2022-10-01T07:13:04.604Z,10.25
2022-10-01T07:14:04.599Z,10.25
2022-10-01T07:15:04.581Z,10.25
2022-10-01T07:16:04.613Z,10.26
2022-10-01T07:17:04.550Z,10.26
2022-10-01T07:18:04.540Z,10.28
2022-10-01T07:19:04.607Z,10.28
2022-10-01T07:20:04.942Z,10.31
2022-10-01T07:21:04.571Z,10.32
2022-10-01T07:22:04.481Z,10.35
2022-10-01T07:23:04.460Z,10.36
2022-10-01T07:24:04.476Z,10.38
2022-10-01T07:25:04.456Z,10.42
2022-10-01T07:26:04.432Z,10.42
2022-10-01T07:27:07.382Z,10.42
2022-10-01T07:28:04.534Z,10.46
2022-10-01T07:29:04.380Z,10.47
2022-10-01T07:30:04.382Z,10.51
2022-10-01T07:31:04.376Z,10.51
2022-10-01T07:32:04.386Z,10.55
2022-10-01T07:33:04.327Z,10.58
2022-10-01T07:34:04.326Z,10.63
2022-10-01T07:35:04.313Z,10.65
2022-10-01T07:36:04.318Z,10.68
2022-10-01T07:37:04.278Z,10.66
2022-10-01T07:38:04.278Z,10.69
2022-10-01T07:39:04.259Z,10.70
2022-10-01T07:40:07.380Z,10.76
2022-10-01T07:41:04.238Z,10.78
2022-10-01T07:42:04.248Z,10.81
2022-10-01T07:43:04.226Z,10.86
2022-10-01T07:44:04.186Z,10.90
2022-10-01T07:45:04.176Z,10.91
2022-10-01T07:46:04.210Z,10.95
2022-10-01T07:47:04.144Z,11.02
2022-10-01T07:48:04.127Z,11.03
2022-10-01T07:49:04.142Z,11.08
2022-10-01T07:50:04.099Z,11.11
2022-10-01T07:51:04.111Z,11.11
2022-10-01T07:52:04.083Z,11.20
2022-10-01T07:53:04.068Z,11.26
2022-10-01T07:54:04.065Z,11.31
2022-10-01T07:55:04.053Z,11.39
2022-10-01T07:56:04.054Z,11.39
2022-10-01T07:57:04.015Z,11.38
2022-10-01T07:58:04.013Z,11.39
2022-10-01T07:59:03.992Z,11.36
2022-10-01T08:00:04.001Z,11.42
2022-10-01T08:01:04.039Z,11.51
2022-10-01T08:02:04.066Z,11.57
2022-10-01T08:03:03.948Z,11.57
2022-10-01T08:04:03.931Z,11.63
2022-10-01T08:05:04.956Z,11.78
2022-10-01T08:06:03.956Z,11.88
2022-10-01T08:07:03.916Z,11.88
2022-10-01T08:08:03.909Z,11.90
2022-10-01T08:09:03.883Z,11.97
2022-10-01T08:10:03.973Z,12.00
2022-10-01T08:11:03.890Z,12.07
2022-10-01T08:12:03.833Z,12.08
2022-10-01T08:13:03.802Z,12.12
2022-10-01T08:14:03.839Z,12.11
2022-10-01T08:15:03.799Z,12.03
2022-10-01T08:16:03.816Z,12.13
2022-10-01T08:17:03.750Z,12.16
2022-10-01T08:18:03.787Z,12.16
2022-10-01T08:19:03.731Z,12.12
2022-10-01T08:20:03.721Z,12.08
2022-10-01T08:21:03.717Z,12.03
2022-10-01T08:22:03.715Z,11.97
2022-10-01T08:23:03.696Z,11.93
2022-10-01T08:24:03.661Z,11.93
2022-10-01T08:25:03.661Z,11.87
2022-10-01T08:26:03.670Z,11.88
2022-10-01T08:27:03.638Z,11.87
2022-10-01T08:28:03.686Z,11.85
2022-10-01T08:29:03.641Z,11.85
2022-10-01T08:30:03.579Z,11.85
2022-10-01T08:31:03.753Z,11.85
2022-10-01T08:32:03.594Z,11.84
2022-10-01T08:33:03.542Z,11.82
2022-10-01T08:34:03.617Z,11.81
2022-10-01T08:35:03.566Z,11.81
2022-10-01T08:36:03.585Z,11.81
2022-10-01T08:37:03.502Z,11.79
2022-10-01T08:38:03.512Z,11.78
2022-10-01T08:39:03.460Z,11.78
2022-10-01T08:40:03.537Z,11.85
2022-10-01T08:41:03.455Z,11.94
2022-10-01T08:42:03.449Z,11.98
2022-10-01T08:43:03.436Z,12.08
2022-10-01T08:44:03.408Z,12.12
2022-10-01T08:45:03.416Z,12.08
2022-10-01T08:46:03.429Z,12.11
2022-10-01T08:47:03.354Z,12.12
2022-10-01T08:48:03.359Z,12.21
2022-10-01T08:49:03.333Z,12.31
2022-10-01T08:50:03.329Z,12.36
2022-10-01T08:51:03.546Z,12.41
2022-10-01T08:52:03.296Z,12.41
2022-10-01T08:53:03.292Z,12.46
2022-10-01T08:54:03.269Z,12.46
2022-10-01T08:55:03.282Z,12.54
2022-10-01T08:56:03.254Z,12.55
2022-10-01T08:57:03.235Z,12.55
2022-10-01T08:58:03.225Z,12.58
2022-10-01T08:59:03.208Z,12.59
2022-10-01T09:00:03.224Z,12.62
2022-10-01T09:01:03.259Z,12.61
2022-10-01T09:02:03.255Z,12.62
2022-10-01T09:03:03.154Z,12.67
2022-10-01T09:04:03.181Z,12.70
2022-10-01T09:05:03.250Z,12.74
2022-10-01T09:06:03.121Z,12.84
2022-10-01T09:07:03.145Z,12.88
2022-10-01T09:08:03.092Z,12.87
2022-10-01T09:09:03.073Z,12.89
2022-10-01T09:10:03.869Z,12.99
2022-10-01T09:11:03.093Z,13.06
2022-10-01T09:12:03.034Z,13.13
2022-10-01T09:13:03.025Z,13.10
2022-10-01T09:14:03.028Z,13.06
2022-10-01T09:15:03.002Z,13.07
2022-10-01T09:16:03.070Z,13.12
2022-10-01T09:17:02.976Z,13.13
2022-10-01T09:18:02.958Z,13.19
2022-10-01T09:19:02.941Z,13.21
2022-10-01T09:20:02.964Z,13.25
2022-10-01T09:21:02.937Z,13.35
2022-10-01T09:22:02.970Z,13.38
2022-10-01T09:23:02.906Z,13.48
2022-10-01T09:24:02.899Z,13.55
2022-10-01T09:25:02.863Z,13.54
2022-10-01T09:26:03.790Z,13.61
2022-10-01T09:27:02.832Z,13.65
2022-10-01T09:28:02.918Z,13.68
2022-10-01T09:29:02.811Z,13.71
2022-10-01T09:30:02.822Z,13.71
2022-10-01T09:31:02.810Z,13.68
2022-10-01T09:32:02.850Z,13.66
2022-10-01T09:33:02.769Z,13.61
2022-10-01T09:34:02.750Z,13.59
2022-10-01T09:35:04.647Z,13.63
2022-10-01T09:36:02.749Z,13.62
2022-10-01T09:37:02.713Z,13.57
2022-10-01T09:38:02.705Z,13.54
2022-10-01T09:39:02.696Z,13.53
2022-10-01T09:40:02.669Z,13.53
2022-10-01T09:41:02.659Z,13.54
2022-10-01T09:42:02.644Z,13.57
2022-10-01T09:43:02.619Z,13.61
2022-10-01T09:44:02.659Z,13.66
2022-10-01T09:45:02.639Z,13.68
2022-10-01T09:46:02.666Z,13.63
2022-10-01T09:47:02.578Z,13.54
2022-10-01T09:48:02.596Z,13.48
2022-10-01T09:49:02.580Z,13.39
2022-10-01T09:50:02.564Z,13.35
2022-10-01T09:51:02.517Z,13.32
2022-10-01T09:52:02.510Z,13.29
2022-10-01T09:53:02.526Z,13.27
2022-10-01T09:54:02.497Z,13.19
2022-10-01T09:55:02.486Z,13.13
2022-10-01T09:56:02.467Z,13.04
2022-10-01T09:57:02.447Z,12.98
2022-10-01T09:58:02.426Z,12.91
2022-10-01T09:59:02.508Z,12.85
2022-10-01T10:00:02.427Z,12.77
2022-10-01T10:01:02.396Z,12.73
2022-10-01T10:02:02.886Z,12.73
2022-10-01T10:03:02.511Z,12.73
2022-10-01T10:04:03.113Z,12.69
2022-10-01T10:05:02.464Z,12.62
2022-10-01T10:06:02.409Z,12.58
2022-10-01T10:07:03.143Z,12.58
2022-10-01T10:08:03.548Z,12.59
2022-10-01T10:09:02.336Z,12.55
2022-10-01T10:10:03.768Z,12.54
2022-10-01T10:11:02.304Z,12.54
2022-10-01T10:12:02.393Z,12.52
2022-10-01T10:13:02.473Z,12.46
2022-10-01T10:14:02.256Z,12.36
2022-10-01T10:15:02.286Z,12.30
2022-10-01T10:16:02.299Z,12.31
2022-10-01T10:17:02.251Z,12.29
2022-10-01T10:18:03.649Z,12.26
2022-10-01T10:19:02.202Z,12.30
2022-10-01T10:20:02.195Z,12.25
2022-10-01T10:21:02.158Z,12.25
2022-10-01T10:22:02.209Z,12.19
2022-10-01T10:23:02.261Z,12.19
2022-10-01T10:24:02.155Z,12.15
2022-10-01T10:25:02.138Z,12.11
2022-10-01T10:26:02.096Z,12.03
2022-10-01T10:27:02.083Z,12.00
2022-10-01T10:28:03.116Z,12.00
2022-10-01T10:29:03.081Z,11.94
2022-10-01T10:30:02.054Z,11.97
2022-10-01T10:31:02.182Z,11.98
2022-10-01T10:32:02.035Z,11.98
2022-10-01T10:33:02.001Z,11.93
2022-10-01T10:34:02.701Z,11.84
2022-10-01T10:35:03.455Z,11.77
2022-10-01T10:36:01.975Z,11.72
2022-10-01T10:37:01.952Z,11.72
2022-10-01T10:38:02.135Z,11.70
2022-10-01T10:39:03.573Z,11.69
2022-10-01T10:40:01.907Z,11.66
2022-10-01T10:41:01.910Z,11.63
2022-10-01T10:42:03.408Z,11.60
2022-10-01T10:43:02.680Z,11.60
2022-10-01T10:44:01.966Z,11.57
2022-10-01T10:45:02.031Z,11.54
2022-10-01T10:46:01.893Z,11.53
2022-10-01T10:47:01.840Z,11.48
2022-10-01T10:48:01.849Z,11.46
2022-10-01T10:49:01.807Z,11.46
2022-10-01T10:50:01.817Z,11.46
2022-10-01T10:51:01.789Z,11.48
2022-10-01T10:52:02.477Z,11.45
2022-10-01T10:53:01.717Z,11.44
2022-10-01T10:54:01.710Z,11.45
2022-10-01T10:55:01.839Z,11.45
2022-10-01T10:56:01.692Z,11.45
2022-10-01T10:57:01.687Z,11.45
2022-10-01T10:58:05.042Z,11.46
2022-10-01T10:59:01.633Z,11.49
2022-10-01T11:00:01.669Z,11.53
2022-10-01T11:01:01.653Z,11.48
2022-10-01T11:02:02.689Z,11.51
2022-10-01T11:03:01.598Z,11.51
2022-10-01T11:04:01.578Z,11.49
2022-10-01T11:05:01.583Z,11.53
2022-10-01T11:06:01.556Z,11.54
2022-10-01T11:07:01.546Z,11.57
2022-10-01T11:08:01.517Z,11.62
2022-10-01T11:09:01.528Z,11.62
2022-10-01T11:10:01.488Z,11.60
2022-10-01T11:11:01.494Z,11.59
2022-10-01T11:12:01.500Z,11.57
2022-10-01T11:13:01.474Z,11.53
2022-10-01T11:14:01.453Z,11.54
2022-10-01T11:16:18.145Z,11.57
2022-10-01T11:17:18.134Z,11.57
2022-10-01T11:18:18.066Z,11.56
2022-10-01T11:19:18.021Z,11.51
2022-10-01T11:20:20.852Z,11.49
2022-10-01T11:21:18.959Z,11.49
2022-10-01T11:22:18.007Z,11.49
2022-10-01T11:23:17.983Z,11.49
2022-10-01T11:24:18.025Z,11.49
2022-10-01T11:25:18.006Z,11.54
2022-10-01T11:26:17.964Z,11.56
2022-10-01T11:27:18.014Z,11.59
2022-10-01T11:28:17.988Z,11.62
2022-10-01T11:29:17.932Z,11.62
2022-10-01T11:30:17.974Z,11.59
2022-10-01T11:31:17.985Z,11.60
2022-10-01T11:32:17.883Z,11.60
2022-10-01T11:33:17.913Z,11.59
2022-10-01T11:34:17.898Z,11.62
2022-10-01T11:35:17.858Z,11.60
2022-10-01T11:36:17.813Z,11.60
2022-10-01T11:37:17.809Z,11.63
2022-10-01T11:38:17.790Z,11.57
2022-10-01T11:39:17.787Z,11.59
2022-10-01T11:40:17.826Z,11.56
2022-10-01T11:41:17.762Z,11.57
2022-10-01T11:42:17.752Z,11.56
2022-10-01T11:43:17.767Z,11.51
2022-10-01T11:44:17.722Z,11.48
2022-10-01T11:45:17.725Z,11.49
2022-10-01T11:46:17.776Z,11.48
2022-10-01T11:47:17.704Z,11.46
2022-10-01T11:48:17.659Z,11.45
2022-10-01T11:49:17.785Z,11.44
2022-10-01T11:50:17.662Z,11.42
2022-10-01T11:51:17.715Z,11.42
2022-10-01T11:52:17.618Z,11.44
2022-10-01T11:53:17.602Z,11.44
2022-10-01T11:54:17.636Z,11.45
2022-10-01T11:55:18.433Z,11.45
2022-10-01T11:56:17.556Z,11.45
2022-10-01T11:57:17.579Z,11.45
2022-10-01T11:58:17.543Z,11.45
2022-10-01T11:59:17.518Z,11.45
2022-10-01T12:00:17.505Z,11.45
2022-10-01T12:01:17.484Z,11.45
2022-10-01T12:02:17.624Z,11.46
2022-10-01T12:03:17.497Z,11.46
2022-10-01T12:04:17.477Z,11.46
2022-10-01T12:05:18.216Z,11.48
2022-10-01T12:06:20.078Z,11.46
2022-10-01T12:07:17.455Z,11.48
2022-10-01T12:08:17.416Z,11.51
2022-10-01T12:09:17.412Z,11.53
2022-10-01T12:10:17.387Z,11.53
2022-10-01T12:11:17.411Z,11.53
2022-10-01T12:12:17.488Z,11.56
2022-10-01T12:13:17.338Z,11.51
2022-10-01T12:14:17.356Z,11.49
2022-10-01T12:15:17.347Z,11.46
2022-10-01T12:16:17.356Z,11.48
2022-10-01T12:17:17.305Z,11.49
2022-10-01T12:18:17.284Z,11.51
2022-10-01T12:19:17.270Z,11.51
2022-10-01T12:20:17.236Z,11.54
2022-10-01T12:21:17.253Z,11.56
2022-10-01T12:22:20.259Z,11.56
2022-10-01T12:23:18.226Z,11.54
2022-10-01T12:24:17.207Z,11.54
2022-10-01T12:25:17.208Z,11.51
2022-10-01T12:26:17.276Z,11.51
2022-10-01T12:27:17.221Z,11.49
2022-10-01T12:28:17.488Z,11.49
2022-10-01T12:29:17.130Z,11.45
2022-10-01T12:30:17.131Z,11.41
2022-10-01T12:31:17.137Z,11.41
2022-10-01T12:32:17.154Z,11.42
2022-10-01T12:33:17.084Z,11.41
2022-10-01T12:34:17.072Z,11.35
2022-10-01T12:35:17.056Z,11.31
2022-10-01T12:36:17.043Z,11.30
2022-10-01T12:37:17.042Z,11.28
2022-10-01T12:38:17.423Z,11.24
2022-10-01T12:39:17.023Z,11.23
2022-10-01T12:40:17.012Z,11.23
2022-10-01T12:41:17.289Z,11.24
2022-10-01T12:42:16.981Z,11.24
2022-10-01T12:43:16.970Z,11.28
2022-10-01T12:44:16.955Z,11.28
2022-10-01T12:45:16.922Z,11.26
2022-10-01T12:46:17.059Z,11.23
2022-10-01T12:47:16.953Z,11.23
2022-10-01T12:48:16.886Z,11.21
2022-10-01T12:49:16.875Z,11.20
2022-10-01T12:50:16.895Z,11.19
2022-10-01T12:51:16.851Z,11.20
2022-10-01T12:52:16.910Z,11.20
2022-10-01T12:53:16.822Z,11.20
2022-10-01T12:54:16.797Z,11.19
2022-10-01T12:55:16.801Z,11.19
2022-10-01T12:56:16.817Z,11.19
2022-10-01T12:57:16.768Z,11.19
2022-10-01T12:58:16.798Z,11.20
2022-10-01T12:59:16.729Z,11.21
2022-10-01T13:00:16.728Z,11.20
2022-10-01T13:01:16.748Z,11.21
2022-10-01T13:02:16.793Z,11.19
2022-10-01T13:03:16.688Z,11.19
2022-10-01T13:04:16.760Z,11.20
2022-10-01T13:05:16.663Z,11.23
2022-10-01T13:06:16.644Z,11.26